Weather History for Highgate, VT

Change the Weather History Date:

Friday, March 28, 2014

  Actual Average (KPBG) Record (KPBG)
Temperature  
Mean Temperature 40 °F 34 °F  
Max Temperature 44 °F 44 °F 71 °F (1989)
Min Temperature 35 °F 25 °F 10 °F (1971)
Degree Days  
Heating Degree Days 26 31  
Month to date heating degree days 981  
Since 1 July heating degree days 6593  
Cooling Degree Days 0 0  
Month to date cooling degree days 0  
Year to date cooling degree days 0  
Moisture  
Dew Point 32 °F    
Average Humidity 73    
Maximum Humidity 90    
Minimum Humidity 35    
Precipitation  
Precipitation 0.00 in - 0.40 in (1978)
Month to date precipitation  
Year to date precipitation  
Sea Level Pressure  
Sea Level Pressure 29.89 in    
Wind  
Wind Speed 10 mph (South)    
Max Wind Speed 16 mph    
Max Gust Speed 28 mph    
Visibility 7 miles    
Events Rain , Snow    
T = Trace of Precipitation, MM = Missing Value Source: NWS Daily Summary

Daily Weather History Graph

Daily Weather History Graph

Search for Another Location

Airport:

Trip Planner

Search our weather history database for the weather conditions in past years. The results will help you decide how hot, cold, wet, or windy it might be!

Date:

Astronomy

Mar. 28, 2014 Rise Set
Actual Time 6:40 AM EDT 7:15 PM EDT
Civil Twilight 6:11 AM EDT 7:44 PM EDT
Nautical Twilight 5:36 AM EDT 8:19 PM EDT
Astronomical Twilight 5:00 AM EDT 8:55 PM EDT
Moon 5:15 AM EDT (3/28) 5:03 PM EDT (3/28)
Length of Visible Light 13h 33m
Length of Day
12h 34m
Waning Crescent, 6% of the Moon is Illuminated
Mar 28
Waning Crescent
Mar 30
New
Apr 7
First Quarter
Apr 15
Full
Apr 22
Last Quarter

Hourly Weather History & Observations

Time (EDT) Temp. Windchill Dew Point Humidity Pressure Visibility Wind Dir Wind Speed Gust Speed Precip Events Conditions
12:15 AM 37.0 °F 31.0 °F 14.0 °F 39% 30.07 in 10.0 mi South 8.1 mph - N/A   Overcast
12:35 AM 38.3 °F 33.9 °F 13.8 °F 37% 30.07 in 10.0 mi South 5.8 mph - N/A   Overcast
12:55 AM 38.3 °F 33.9 °F 12.9 °F 35% 30.06 in 10.0 mi South 5.8 mph - N/A   Overcast
1:15 AM 38.3 °F 33.2 °F 12.9 °F 35% 30.06 in 10.0 mi South 6.9 mph - N/A   Overcast
1:35 AM 38.3 °F 31.4 °F 12.7 °F 35% 30.05 in 10.0 mi South 10.4 mph 17.3 mph N/A   Overcast
1:55 AM 38.3 °F 32.5 °F 19.9 °F 48% 30.05 in 10.0 mi South 8.1 mph 17.3 mph N/A   Overcast
2:15 AM 38.3 °F 31.9 °F 21.6 °F 51% 30.05 in 10.0 mi South 9.2 mph - N/A   Overcast
2:35 AM 38.3 °F 30.9 °F 20.8 °F 50% 30.04 in 10.0 mi South 11.5 mph 20.7 mph N/A   Overcast
2:55 AM 38.3 °F 31.9 °F 21.4 °F 51% 30.04 in 10.0 mi South 9.2 mph 16.1 mph N/A   Overcast
3:15 AM 38.3 °F 31.9 °F 22.8 °F 54% 30.03 in 10.0 mi South 9.2 mph 19.6 mph N/A   Unknown
3:35 AM 38.3 °F 33.2 °F 22.8 °F 54% 30.02 in 10.0 mi South 6.9 mph - N/A   Mostly Cloudy
3:55 AM 38.3 °F 30.9 °F 23.5 °F 55% 30.01 in 10.0 mi South 11.5 mph 17.3 mph N/A   Overcast
4:15 AM 38.3 °F 30.9 °F 23.0 °F 54% 30.00 in 10.0 mi South 11.5 mph 18.4 mph N/A   Overcast
4:35 AM 38.3 °F 31.4 °F 24.4 °F 57% 29.99 in 7.0 mi South 10.4 mph 20.7 mph N/A   Unknown
4:55 AM 35.6 °F 28.0 °F 25.3 °F 66% 29.99 in 7.0 mi South 10.4 mph 17.3 mph N/A Snow Light Snow
5:15 AM 35.6 °F 26.6 °F 26.6 °F 70% 29.98 in 4.0 mi South 13.8 mph 21.9 mph N/A Snow Light Snow
5:35 AM 35.6 °F 27.5 °F 28.8 °F 76% 29.97 in 3.0 mi South 11.5 mph - N/A Snow Light Snow
5:55 AM 35.6 °F 28.6 °F 30.2 °F 81% 29.96 in 2.5 mi South 9.2 mph - N/A Snow Light Snow
6:15 AM 35.6 °F 29.2 °F 31.8 °F 86% 29.95 in 1.5 mi South 8.1 mph 16.1 mph N/A Snow Light Snow
6:35 AM 35.6 °F 26.6 °F 32.0 °F 87% 29.95 in 2.0 mi South 13.8 mph 19.6 mph N/A Snow Light Snow
6:55 AM 35.6 °F 28.0 °F 32.0 °F 87% 29.95 in 1.0 mi South 10.4 mph 18.4 mph N/A Snow Light Snow
7:15 AM 35.6 °F 26.2 °F 32.0 °F 87% 29.95 in 1.2 mi South 15.0 mph 20.7 mph N/A Snow Light Snow
7:35 AM 35.6 °F 27.5 °F 32.0 °F 87% 29.94 in 1.2 mi South 11.5 mph 20.7 mph N/A Snow Light Snow
7:55 AM 35.6 °F 27.1 °F 32.0 °F 87% 29.93 in 3.0 mi South 12.7 mph 23.0 mph N/A Snow Light Snow
8:15 AM 35.6 °F 28.0 °F 31.8 °F 86% 29.92 in 4.0 mi South 10.4 mph 23.0 mph N/A   Overcast
8:35 AM 35.8 °F 27.8 °F 31.5 °F 84% 29.90 in 5.0 mi South 11.5 mph 19.6 mph N/A   Overcast
8:55 AM 37.4 °F 28.5 °F 32.2 °F 81% 29.89 in 5.0 mi South 15.0 mph 23.0 mph N/A   Overcast
9:15 AM 38.3 °F 30.5 °F 32.2 °F 79% 29.87 in 7.0 mi South 12.7 mph 24.2 mph N/A   Overcast
9:35 AM 38.3 °F 30.9 °F 32.0 °F 78% 29.87 in 10.0 mi South 11.5 mph 23.0 mph N/A   Overcast
9:55 AM 38.3 °F 30.1 °F 31.6 °F 77% 29.88 in 5.0 mi South 13.8 mph 24.2 mph N/A   Overcast
10:15 AM 38.3 °F 29.7 °F 31.6 °F 77% 29.87 in 5.0 mi South 15.0 mph 21.9 mph N/A   Overcast
10:35 AM 38.3 °F 30.9 °F 32.2 °F 79% 29.86 in 3.0 mi South 11.5 mph 21.9 mph N/A   Overcast
10:55 AM 38.3 °F 30.9 °F 32.5 °F 80% 29.85 in 10.0 mi South 11.5 mph 16.1 mph N/A   Overcast
11:15 AM 39.0 °F 31.4 °F 32.4 °F 77% 29.84 in 10.0 mi South 12.7 mph 23.0 mph N/A   Overcast
11:35 AM 41.0 °F 33.9 °F 32.9 °F 73% 29.82 in 10.0 mi South 12.7 mph 23.0 mph N/A   Overcast
11:55 AM 41.0 °F 33.1 °F 32.0 °F 70% 29.82 in 10.0 mi South 15.0 mph 21.9 mph N/A   Overcast
12:15 PM 41.0 °F 33.1 °F 31.8 °F 70% 29.82 in 10.0 mi South 15.0 mph 23.0 mph N/A   Overcast
12:35 PM 41.0 °F 33.1 °F 31.8 °F 70% 29.81 in 10.0 mi South 15.0 mph 27.6 mph N/A   Overcast
12:55 PM 42.1 °F 34.9 °F 32.0 °F 67% 29.79 in 10.0 mi South 13.8 mph 23.0 mph N/A   Overcast
1:15 PM 42.1 °F 34.2 °F 32.5 °F 69% 29.79 in 10.0 mi South 16.1 mph 24.2 mph N/A   Overcast
1:35 PM 42.1 °F 37.1 °F 32.9 °F 70% 29.78 in 10.0 mi South 8.1 mph 24.2 mph N/A Rain Light Rain
1:55 PM 41.4 °F 34.7 °F 33.8 °F 74% 29.79 in 5.0 mi South 11.5 mph 21.9 mph N/A Rain Light Rain
2:15 PM 41.0 °F 33.1 °F 34.3 °F 77% 29.79 in 2.5 mi South 15.0 mph 24.2 mph N/A   Overcast
2:35 PM 41.0 °F 33.9 °F 35.1 °F 79% 29.79 in 2.5 mi South 12.7 mph 23.0 mph N/A   Overcast
2:55 PM 41.0 °F 33.5 °F 35.6 °F 81% 29.79 in 2.5 mi South 13.8 mph 20.7 mph N/A   Unknown
3:15 PM 41.0 °F 33.5 °F 36.0 °F 82% 29.78 in 3.0 mi South 13.8 mph 27.6 mph N/A   Unknown
3:35 PM 41.0 °F 33.1 °F 36.5 °F 84% 29.77 in 4.0 mi South 15.0 mph 25.3 mph N/A   Overcast
3:55 PM 42.1 °F 35.7 °F 37.6 °F 84% 29.77 in 7.0 mi South 11.5 mph 20.7 mph N/A   Overcast
4:15 PM 42.3 °F 35.1 °F 37.0 °F 82% 29.76 in 10.0 mi South 13.8 mph 21.9 mph N/A   Overcast
4:35 PM 42.6 °F 35.9 °F 36.7 °F 79% 29.76 in 10.0 mi South 12.7 mph 24.2 mph N/A   Overcast
4:55 PM 42.4 °F 35.7 °F 36.7 °F 80% 29.76 in 5.0 mi South 12.7 mph 21.9 mph N/A Rain Rain
5:15 PM 43.3 °F 37.2 °F 37.4 °F 80% 29.77 in 10.0 mi South 11.5 mph 23.0 mph N/A   Overcast
5:35 PM 43.3 °F 36.8 °F 36.7 °F 77% 29.77 in 10.0 mi South 12.7 mph 25.3 mph N/A   Light Drizzle
5:55 PM 43.7 °F 37.7 °F 36.7 °F 76% 29.77 in 10.0 mi South 11.5 mph 21.9 mph N/A   Overcast
6:15 PM 44.2 °F 37.6 °F 37.0 °F 76% 29.77 in 10.0 mi South 13.8 mph 18.4 mph N/A   Overcast
6:35 PM 44.6 °F 38.4 °F 37.4 °F 76% 29.77 in 10.0 mi South 12.7 mph 24.2 mph N/A   Mostly Cloudy
6:55 PM 44.6 °F 39.2 °F 37.4 °F 76% 29.78 in 10.0 mi SSW 10.4 mph 19.6 mph N/A   Overcast
7:15 PM 44.6 °F 38.8 °F 37.4 °F 76% 29.79 in 10.0 mi South 11.5 mph 19.6 mph N/A   Drizzle
7:35 PM 44.6 °F 39.2 °F 37.8 °F 77% 29.79 in 10.0 mi South 10.4 mph 16.1 mph N/A   Overcast
7:55 PM 44.6 °F 38.4 °F 37.8 °F 77% 29.80 in 10.0 mi South 12.7 mph 19.6 mph N/A   Overcast
8:15 PM 44.6 °F 40.2 °F 37.9 °F 77% 29.81 in 10.0 mi South 8.1 mph 17.3 mph N/A   Overcast
8:35 PM 44.6 °F 39.2 °F 38.3 °F 79% 29.84 in 10.0 mi South 10.4 mph 23.0 mph N/A Rain Light Rain
8:55 PM 44.6 °F 39.7 °F 38.8 °F 80% 29.85 in 10.0 mi SSW 9.2 mph - N/A   Light Drizzle
9:15 PM 44.1 °F 39.5 °F 38.7 °F 81% 29.87 in 7.0 mi SSW 8.1 mph 17.3 mph N/A Rain Rain
9:35 PM 43.7 °F 38.1 °F 38.7 °F 82% 29.89 in 5.0 mi SSW 10.4 mph 19.6 mph N/A Rain Light Rain
9:55 PM 43.3 °F 39.2 °F 39.2 °F 85% 29.90 in 5.0 mi SSW 6.9 mph - N/A   Drizzle
10:15 PM 42.4 °F 37.5 °F 38.7 °F 86% 29.92 in 4.0 mi SSW 8.1 mph - N/A Rain Light Rain
10:35 PM 42.6 °F 38.4 °F 39.0 °F 87% 29.94 in 5.0 mi SW 6.9 mph - N/A Rain Rain
10:55 PM 42.1 °F 39.2 °F 38.7 °F 88% 29.97 in 5.0 mi WSW 4.6 mph - N/A   Drizzle
11:15 PM 41.0 °F 38.0 °F 37.6 °F 88% 29.98 in 4.0 mi SW 4.6 mph - N/A   Overcast
11:35 PM 41.0 °F - 37.8 °F 88% 30.01 in 4.0 mi Calm Calm - N/A   Overcast
11:55 PM 41.2 °F 39.2 °F 38.5 °F 90% 30.03 in 5.0 mi WSW 3.5 mph - N/A   Overcast